Time;durP1;ratioP1;P1;durP2;ratioP2;P2;SDS_P1;SDS_P2;PMS_P1;PMS_P2;Temp;Humidity;BMP_temperature;BMP_pressure;BME280_temperature;BME280_humidity;BME280_pressure;Samples;Min_cycle;Max_cycle;Signal;HPM_P1;HPM_P2
2023/01/18 00:00:09;;;;;;;8.55;3.40;;;0.90;99.90;;;;;;5091349;28;20040;-89
2023/01/18 00:02:35;;;;;;;9.82;3.45;;;0.40;99.90;;;;;;5074198;28;20032;-88
2023/01/18 00:05:02;;;;;;;8.57;3.25;;;0.40;99.90;;;;;;5057246;28;20141;-89
2023/01/18 00:07:28;;;;;;;9.98;3.50;;;0.30;99.90;;;;;;5071281;28;20045;-88
2023/01/18 00:09:55;;;;;;;8.65;3.53;;;2.20;99.90;;;;;;5044947;28;20036;-88
2023/01/18 00:12:21;;;;;;;8.77;3.30;;;0.40;99.90;;;;;;5074433;28;20032;-89
2023/01/18 00:14:46;;;;;;;9.05;3.78;;;1.80;99.90;;;;;;5055945;28;20048;-89
2023/01/18 00:17:12;;;;;;;9.50;3.63;;;0.70;99.90;;;;;;5048098;28;20129;-89
2023/01/18 00:19:41;;;;;;;10.70;3.80;;;;;;;;;;5089616;28;20561;-88
2023/01/18 00:22:06;;;;;;;8.82;3.80;;;0.40;99.90;;;;;;5079087;28;20039;-89
2023/01/18 00:24:35;;;;;;;9.35;3.28;;;0.30;99.90;;;;;;5073709;28;20032;-89
2023/01/18 00:27:03;;;;;;;8.05;3.10;;;0.30;99.90;;;;;;5071339;28;20118;-89
2023/01/18 00:29:30;;;;;;;9.38;4.00;;;;;;;;;;5054762;28;20500;-89
2023/01/18 00:31:56;;;;;;;10.18;3.70;;;0.30;99.90;;;;;;5078172;28;20036;-89
2023/01/18 00:34:22;;;;;;;8.32;3.38;;;;;;;;;;5087699;28;20071;-89
2023/01/18 00:36:50;;;;;;;11.23;3.78;;;0.20;99.90;;;;;;5081355;28;20396;-86
2023/01/18 00:39:16;;;;;;;8.85;3.72;;;0.30;99.90;;;;;;5085945;28;20035;-90
2023/01/18 00:43:37;;;;;;;8.48;3.47;;;0.30;99.90;;;;;;5056178;28;20474;-88
2023/01/18 00:44:28;;;;;;;11.45;4.28;;;0.20;99.90;;;;;;5095027;28;20382;-88
2023/01/18 00:46:54;;;;;;;11.05;4.07;;;0.20;99.90;;;;;;5087598;28;20051;-89
2023/01/18 00:49:21;;;;;;;10.07;3.97;;;0.20;99.90;;;;;;5095943;28;20056;-89
2023/01/18 00:51:51;;;;;;;10.57;3.85;;;0.20;99.90;;;;;;5068855;28;20126;-89
2023/01/18 00:54:17;;;;;;;9.30;3.90;;;;;;;;;;5077134;28;20044;-87
2023/01/18 00:56:43;;;;;;;9.32;3.50;;;0.20;99.90;;;;;;5091629;28;20051;-87
2023/01/18 00:59:12;;;;;;;10.70;4.32;;;0.20;99.90;;;;;;5078341;28;20491;-87
2023/01/18 01:01:40;;;;;;;10.40;4.15;;;0.20;99.90;;;;;;5083151;28;20107;-88
2023/01/18 01:06:50;;;;;;;10.57;3.85;;;0.20;99.90;;;;;;5097688;28;20044;-88
2023/01/18 01:09:27;;;;;;;9.52;3.80;;;0.20;99.90;;;;;;5089307;28;20044;-87
2023/01/18 01:28:24;;;;;;;8.68;3.60;;;0.10;99.90;;;;;;5110326;28;20062;-89
2023/01/18 01:30:50;;;;;;;9.57;3.90;;;0.10;99.90;;;;;;5073831;28;20051;-89
2023/01/18 01:33:17;;;;;;;9.98;4.07;;;0.00;99.90;;;;;;5059731;28;20510;-90
2023/01/18 01:35:56;;;;;;;9.60;4.07;;;-0.30;99.90;;;;;;5090664;28;20492;-89
2023/01/18 01:38:25;;;;;;;8.95;4.00;;;;;;;;;;5078176;28;20261;-89
2023/01/18 01:41:00;;;;;;;10.13;4.15;;;0.00;99.90;;;;;;5086664;28;20040;-89
2023/01/18 01:43:48;;;;;;;10.02;3.97;;;0.00;99.90;;;;;;5090817;28;20711;-89
2023/01/18 01:46:35;;;;;;;10.20;4.45;;;0.00;99.90;;;;;;5083202;28;20400;-89
2023/01/18 01:49:12;;;;;;;9.23;4.15;;;0.00;99.90;;;;;;5092536;28;20047;-87
2023/01/18 01:52:02;;;;;;;8.73;3.90;;;0.00;99.90;;;;;;5075003;28;20472;-89
2023/01/18 01:54:47;;;;;;;9.70;3.97;;;0.00;99.90;;;;;;5078545;28;20043;-89
2023/01/18 01:57:33;;;;;;;9.45;4.05;;;0.00;99.90;;;;;;5102752;28;20568;-90
2023/01/18 02:00:31;;;;;;;11.18;4.55;;;0.00;99.90;;;;;;5088293;28;20048;-89
2023/01/18 02:03:12;;;;;;;9.15;4.15;;;0.00;99.90;;;;;;5076579;28;20052;-89
2023/01/18 02:05:59;;;;;;;9.45;4.25;;;;;;;;;;5088565;28;20036;-88
2023/01/18 02:08:42;;;;;;;10.27;4.55;;;1.40;99.90;;;;;;5085244;28;20051;-90
2023/01/18 02:11:19;;;;;;;11.27;4.97;;;-0.10;99.90;;;;;;5077579;28;20090;-89
2023/01/18 02:14:15;;;;;;;10.48;4.78;;;0.00;99.90;;;;;;5081788;28;20055;-89
2023/01/18 02:17:07;;;;;;;10.85;4.90;;;;;;;;;;5090664;28;20046;-89
2023/01/18 02:23:08;;;;;;;11.35;4.93;;;0.00;99.90;;;;;;5098640;28;20051;-90
2023/01/18 02:25:51;;;;;;;12.38;5.20;;;;;;;;;;5102935;28;20036;-89
2023/01/18 02:28:24;;;;;;;10.02;4.88;;;;;;;;;;5078163;28;20040;-90
2023/01/18 02:31:07;;;;;;;11.52;5.28;;;-0.10;99.90;;;;;;5093527;28;20185;-90
2023/01/18 02:37:23;;;;;;;10.75;5.28;;;-0.10;99.90;;;;;;5102000;28;20164;-90
2023/01/18 02:40:07;;;;;;;12.88;5.13;;;;;;;;;;5092728;28;20096;-88
2023/01/18 02:48:45;;;;;;;11.75;5.03;;;-0.10;99.90;;;;;;5096339;28;20089;-89
2023/01/18 02:51:16;;;;;;;10.88;5.10;;;-0.10;99.90;;;;;;5092488;28;20058;-90
2023/01/18 02:53:44;;;;;;;10.65;5.22;;;-0.10;99.90;;;;;;5078305;28;20114;-90
2023/01/18 02:56:35;;;;;;;;;;;;;;;;;;;;;
2023/01/18 02:59:37;;;;;;;10.75;5.13;;;-0.10;99.90;;;;;;5082002;28;20150;-89
2023/01/18 03:02:15;;;;;;;11.13;5.68;;;-0.10;99.90;;;;;;5086138;28;20512;-88
2023/01/18 03:04:58;;;;;;;13.35;5.40;;;-0.10;99.90;;;;;;5079168;28;20040;-90
2023/01/18 03:08:21;;;;;;;11.43;5.38;;;-0.20;99.90;;;;;;5078545;28;20404;-90
2023/01/18 03:11:15;;;;;;;12.70;5.80;;;-0.20;99.90;;;;;;5077629;28;20044;-89
2023/01/18 03:14:12;;;;;;;13.55;6.32;;;-0.20;99.90;;;;;;5099464;28;20373;-91
2023/01/18 03:17:06;;;;;;;11.80;5.93;;;;;;;;;;5087202;28;20046;-91
2023/01/18 03:25:53;;;;;;;12.02;5.70;;;;;;;;;;5091330;28;20047;-88
2023/01/18 03:35:02;;;;;;;13.63;6.28;;;-0.20;99.90;;;;;;5013491;28;20053;-90
2023/01/18 03:37:39;;;;;;;14.05;6.32;;;;;;;;;;4995020;28;20406;-88
2023/01/18 03:40:17;;;;;;;12.02;6.28;;;;;;;;;;5072397;28;20043;-88
2023/01/18 03:42:52;;;;;;;11.90;6.68;;;-0.20;99.90;;;;;;5086646;28;20126;-89
2023/01/18 03:45:27;;;;;;;16.23;6.80;;;;;;;;;;5082945;28;20071;-89
2023/01/18 03:47:58;;;;;;;12.55;6.45;;;;;;;;;;5089366;28;20510;-89
2023/01/18 03:51:05;;;;;;;;;;;;;;;;;;;;;
2023/01/18 03:54:08;;;;;;;11.02;6.07;;;-0.20;99.90;;;;;;5069265;28;20051;-89
2023/01/18 03:56:56;;;;;;;12.07;6.60;;;-0.30;99.90;;;;;;5063337;28;20054;-89
2023/01/18 03:59:35;;;;;;;12.30;6.25;;;;;;;;;;5090011;28;20404;-88
2023/01/18 04:02:08;;;;;;;14.30;6.65;;;-0.40;99.90;;;;;;5081324;28;20055;-88
2023/01/18 04:04:42;;;;;;;12.38;6.68;;;;;;;;;;5080583;28;20655;-89
2023/01/18 04:07:21;;;;;;;13.20;7.03;;;-0.30;99.90;;;;;;5084174;28;20497;-88
2023/01/18 04:09:50;;;;;;;14.32;6.88;;;;;;;;;;5084731;28;20031;-89
2023/01/18 04:12:16;;;;;;;13.07;7.45;;;;;;;;;;5080178;28;20449;-89
2023/01/18 04:14:47;;;;;;;14.48;7.20;;;-0.30;99.90;;;;;;5068948;28;20413;-88
2023/01/18 04:17:17;;;;;;;14.45;7.10;;;-0.30;99.90;;;;;;5067038;28;20134;-89
2023/01/18 04:19:48;;;;;;;13.27;7.18;;;-0.30;99.90;;;;;;5083941;28;20056;-90
2023/01/18 04:22:19;;;;;;;13.30;7.10;;;-0.40;99.90;;;;;;5090461;27;20043;-89
2023/01/18 04:24:45;;;;;;;13.05;7.35;;;;;;;;;;5096706;27;20043;-89
2023/01/18 04:27:17;;;;;;;15.68;7.28;;;;;;;;;;5072039;28;20052;-89
2023/01/18 04:29:46;;;;;;;13.15;7.13;;;-0.30;99.90;;;;;;5088598;28;20122;-89
2023/01/18 04:32:18;;;;;;;13.27;6.72;;;;;;;;;;5079521;28;20052;-90
2023/01/18 04:34:59;;;;;;;13.75;7.20;;;-0.40;99.90;;;;;;5091669;28;20058;-89
2023/01/18 04:37:33;;;;;;;12.10;7.13;;;;;;;;;;5090694;28;20047;-89
2023/01/18 04:40:08;;;;;;;14.25;7.53;;;;;;;;;;5098909;28;20047;-89
2023/01/18 04:42:39;;;;;;;13.65;7.22;;;-0.60;99.90;;;;;;5089689;28;20043;-89
2023/01/18 04:45:08;;;;;;;14.10;7.85;;;;;;;;;;5110838;28;20050;-89
2023/01/18 04:47:45;;;;;;;12.82;7.18;;;-0.50;99.90;;;;;;5091246;28;20089;-89
2023/01/18 04:50:14;;;;;;;13.23;7.45;;;-0.40;99.90;;;;;;5078330;28;20039;-89
2023/01/18 04:52:42;;;;;;;13.23;7.10;;;-0.50;99.90;;;;;;5085248;28;20040;-89
2023/01/18 04:55:14;;;;;;;13.50;7.05;;;-0.50;99.90;;;;;;5078107;28;20062;-89
2023/01/18 04:57:43;;;;;;;15.30;6.88;;;;;;;;;;5073210;28;20043;-89
2023/01/18 05:00:11;;;;;;;15.00;7.15;;;-0.40;99.90;;;;;;5106110;28;20115;-90
2023/01/18 05:02:40;;;;;;;13.65;7.18;;;-0.50;99.90;;;;;;5068295;28;20048;-89
2023/01/18 05:05:08;;;;;;;13.25;7.63;;;-0.50;99.90;;;;;;5079346;28;20028;-90
2023/01/18 05:07:42;;;;;;;14.25;7.05;;;-0.40;99.90;;;;;;5071231;28;20040;-91
2023/01/18 05:10:11;;;;;;;13.40;7.22;;;-0.40;99.90;;;;;;5076748;28;20047;-88
2023/01/18 05:12:37;;;;;;;15.45;7.25;;;-0.40;99.90;;;;;;5099720;28;20028;-89
2023/01/18 05:15:17;;;;;;;14.38;7.07;;;-0.50;99.90;;;;;;5074792;28;20442;-89
2023/01/18 05:17:45;;;;;;;14.85;7.40;;;;;;;;;;5075783;28;20043;-89
2023/01/18 05:20:12;;;;;;;14.40;7.35;;;-0.50;99.90;;;;;;5071728;28;20044;-89
2023/01/18 05:22:54;;;;;;;12.70;7.28;;;-0.40;99.90;;;;;;5067294;28;20055;-88
2023/01/18 05:25:22;;;;;;;15.65;8.07;;;-0.40;99.90;;;;;;5086764;28;20040;-89
2023/01/18 05:27:51;;;;;;;16.33;8.13;;;-0.50;99.90;;;;;;5099779;28;20502;-88
2023/01/18 05:30:17;;;;;;;14.40;7.65;;;;;;;;;;5066868;28;20111;-88
2023/01/18 05:32:43;;;;;;;16.35;8.25;;;-0.50;99.90;;;;;;5093541;28;20052;-88
2023/01/18 05:35:09;;;;;;;14.20;7.80;;;-0.50;99.90;;;;;;5073697;28;20040;-89
2023/01/18 05:37:40;;;;;;;15.10;7.88;;;-0.50;99.90;;;;;;5085976;28;20046;-90
2023/01/18 05:40:10;;;;;;;14.30;7.60;;;;;;;;;;5077442;28;20118;-90
2023/01/18 05:42:39;;;;;;;14.07;7.85;;;;;;;;;;5072659;28;20511;-88
2023/01/18 05:45:10;;;;;;;15.68;8.48;;;;;;;;;;5099074;28;20597;-89
2023/01/18 05:47:40;;;;;;;15.70;7.95;;;-0.30;99.90;;;;;;5059733;28;20231;-88
2023/01/18 05:50:06;;;;;;;14.50;7.97;;;-0.50;99.90;;;;;;5089319;28;20056;-88
2023/01/18 05:52:37;;;;;;;15.38;8.30;;;-0.50;99.90;;;;;;5112324;27;20043;-88
2023/01/18 05:55:09;;;;;;;15.02;7.82;;;;;;;;;;5076270;28;20119;-88
2023/01/18 05:57:38;;;;;;;14.40;8.73;;;0.10;99.90;;;;;;5072085;28;20046;-88
2023/01/18 06:00:16;;;;;;;16.08;8.77;;;-0.50;99.90;;;;;;5069526;28;20048;-87
2023/01/18 06:02:42;;;;;;;14.43;7.63;;;-0.50;99.90;;;;;;5078856;28;20067;-88
2023/01/18 06:05:07;;;;;;;14.93;8.38;;;-0.50;99.90;;;;;;5077072;28;20444;-88
2023/01/18 06:07:33;;;;;;;14.68;7.88;;;-0.50;99.90;;;;;;5074025;28;20036;-88
2023/01/18 06:09:59;;;;;;;15.73;8.00;;;-0.50;99.90;;;;;;5070331;28;20050;-87
2023/01/18 06:12:28;;;;;;;16.80;7.72;;;-0.60;99.90;;;;;;5066387;28;20040;-87
2023/01/18 06:14:53;;;;;;;14.07;7.90;;;-0.50;99.90;;;;;;5065562;28;20039;-88
2023/01/18 06:17:22;;;;;;;15.13;7.95;;;-0.50;99.90;;;;;;5067453;28;20405;-87
2023/01/18 06:19:47;;;;;;;15.88;8.13;;;0.60;99.90;;;;;;5072292;28;20458;-87
2023/01/18 06:22:14;;;;;;;15.43;8.38;;;-0.50;99.90;;;;;;5058298;28;20047;-88
2023/01/18 06:24:40;;;;;;;19.55;8.68;;;-0.60;99.90;;;;;;5047859;28;20090;-88
2023/01/18 06:27:06;;;;;;;15.88;8.35;;;-0.60;99.90;;;;;;5080619;28;20039;-88
2023/01/18 06:29:32;;;;;;;15.85;7.88;;;-0.60;99.90;;;;;;5107487;28;20422;-87
2023/01/18 06:31:58;;;;;;;16.20;8.48;;;-0.60;99.90;;;;;;5068160;28;20046;-87
2023/01/18 06:34:23;;;;;;;14.07;8.43;;;-0.60;99.90;;;;;;5053194;28;20090;-86
2023/01/18 06:36:49;;;;;;;15.15;8.07;;;-0.60;99.90;;;;;;5067161;28;20072;-88
2023/01/18 06:39:15;;;;;;;16.13;8.13;;;-0.60;99.90;;;;;;5056562;28;20047;-86
2023/01/18 06:41:49;;;;;;;14.30;7.70;;;;;;;;;;5072692;28;20039;-89
2023/01/18 06:44:15;;;;;;;15.25;8.43;;;-0.60;99.90;;;;;;5088220;28;20079;-87
2023/01/18 06:46:44;;;;;;;13.32;8.00;;;;;;;;;;5084554;28;20112;-87
2023/01/18 06:49:11;;;;;;;13.88;8.38;;;-0.50;99.90;;;;;;5084577;28;20062;-88
2023/01/18 06:51:37;;;;;;;15.55;7.95;;;-0.60;99.90;;;;;;5070760;27;20190;-88
2023/01/18 06:54:03;;;;;;;13.30;7.85;;;-0.60;99.90;;;;;;5074880;28;20051;-88
2023/01/18 06:56:29;;;;;;;15.07;7.88;;;-0.60;99.90;;;;;;5091537;28;20496;-89
2023/01/18 06:58:57;;;;;;;14.80;8.27;;;0.60;99.90;;;;;;5090434;28;20043;-87
2023/01/18 07:01:24;;;;;;;16.65;8.60;;;0.90;99.90;;;;;;5103128;28;20039;-87
2023/01/18 07:03:50;;;;;;;15.55;8.07;;;-0.50;99.90;;;;;;5068212;28;20509;-88
2023/01/18 07:06:16;;;;;;;14.23;7.70;;;-0.60;99.90;;;;;;5073023;28;20135;-87
2023/01/18 07:08:42;;;;;;;15.95;8.07;;;-0.60;99.90;;;;;;5091540;28;20458;-87
2023/01/18 07:11:10;;;;;;;14.98;7.55;;;-0.50;99.90;;;;;;5091635;28;20088;-88
2023/01/18 07:13:42;;;;;;;15.13;7.75;;;;;;;;;;5091066;28;20089;-88
2023/01/18 07:16:16;;;;;;;14.38;7.95;;;-0.50;99.90;;;;;;5106381;28;20092;-88
2023/01/18 07:18:45;;;;;;;13.40;7.63;;;-0.50;99.90;;;;;;5103960;28;20370;-87
2023/01/18 07:21:12;;;;;;;14.85;7.45;;;-0.50;99.90;;;;;;5108244;28;20043;-88
2023/01/18 07:23:41;;;;;;;14.90;8.15;;;-0.50;99.90;;;;;;5091741;28;20046;-87
2023/01/18 07:26:16;;;;;;;13.75;7.53;;;-0.90;99.90;;;;;;5090247;28;20147;-87
2023/01/18 07:28:43;;;;;;;16.63;7.85;;;-0.30;99.90;;;;;;5089787;28;20070;-87
2023/01/18 07:31:09;;;;;;;14.07;7.60;;;-0.40;99.90;;;;;;5108150;28;20561;-86
2023/01/18 07:33:35;;;;;;;15.77;7.47;;;-0.50;99.90;;;;;;5089026;28;20036;-87
2023/01/18 07:36:08;;;;;;;14.02;7.13;;;-0.40;99.90;;;;;;5079866;28;20115;-89
2023/01/18 07:38:34;;;;;;;13.57;7.28;;;-0.40;99.90;;;;;;5082061;28;20031;-88
2023/01/18 07:41:08;;;;;;;15.70;7.60;;;-0.40;99.90;;;;;;5090888;28;20050;-87
2023/01/18 07:43:36;;;;;;;15.00;7.07;;;0.10;99.90;;;;;;5090955;28;20415;-87
2023/01/18 07:46:03;;;;;;;15.07;7.35;;;-0.30;99.90;;;;;;5090958;28;20119;-88
2023/01/18 07:48:30;;;;;;;17.58;7.43;;;-0.30;99.90;;;;;;5089328;28;20052;-88
2023/01/18 07:51:01;;;;;;;13.82;7.15;;;-0.30;99.90;;;;;;5108054;28;20504;-88
2023/01/18 07:53:28;;;;;;;12.95;7.15;;;-0.20;99.90;;;;;;5089359;28;20115;-87
2023/01/18 07:55:58;;;;;;;13.25;6.80;;;-0.30;99.90;;;;;;5091211;28;20035;-87
2023/01/18 07:58:24;;;;;;;14.82;7.07;;;-0.20;99.90;;;;;;5086366;28;20028;-87
2023/01/18 08:00:50;;;;;;;14.95;7.22;;;0.80;99.90;;;;;;5045894;28;20089;-88
2023/01/18 08:03:17;;;;;;;16.60;7.28;;;-0.20;99.90;;;;;;5090507;28;20480;-88
2023/01/18 08:05:44;;;;;;;13.20;6.47;;;-0.20;99.90;;;;;;5074278;28;20065;-87
2023/01/18 08:08:14;;;;;;;14.25;6.35;;;-0.40;99.90;;;;;;5089617;28;20040;-88
2023/01/18 08:10:41;;;;;;;11.85;6.30;;;-0.20;99.90;;;;;;5067550;28;20028;-88
2023/01/18 08:13:09;;;;;;;13.00;6.68;;;-0.10;99.90;;;;;;5088018;28;20035;-88
2023/01/18 08:15:38;;;;;;;15.02;6.60;;;0.00;99.90;;;;;;5078487;28;20519;-87
2023/01/18 08:18:05;;;;;;;15.35;6.40;;;-0.10;99.90;;;;;;5094565;28;20540;-88
2023/01/18 08:20:32;;;;;;;12.38;6.00;;;0.00;99.90;;;;;;5094949;28;20048;-88
2023/01/18 08:22:58;;;;;;;14.57;6.57;;;0.00;99.90;;;;;;5086737;28;20100;-86
2023/01/18 08:25:31;;;;;;;12.80;6.15;;;1.50;99.90;;;;;;5098586;28;20046;-87
2023/01/18 08:27:59;;;;;;;14.52;6.07;;;-0.10;99.90;;;;;;5094483;28;20043;-88
2023/01/18 08:30:37;;;;;;;14.00;6.07;;;0.40;99.90;;;;;;5111277;28;20075;-88
2023/01/18 08:33:09;;;;;;;15.68;6.47;;;0.10;99.90;;;;;;5094099;28;20031;-88
2023/01/18 08:35:41;;;;;;;13.13;6.13;;;0.20;99.90;;;;;;5084773;28;20032;-87
2023/01/18 08:38:07;;;;;;;11.50;5.30;;;0.20;99.90;;;;;;5090938;28;20122;-87
2023/01/18 08:40:32;;;;;;;14.23;5.85;;;0.20;99.90;;;;;;5089412;28;20054;-87
2023/01/18 08:43:00;;;;;;;12.45;6.38;;;1.80;99.90;;;;;;5094110;28;20046;-88
2023/01/18 08:45:29;;;;;;;12.63;5.75;;;0.30;99.90;;;;;;5072876;28;20488;-88
2023/01/18 08:47:57;;;;;;;13.63;5.78;;;0.50;99.90;;;;;;5071799;28;20488;-88
2023/01/18 08:50:23;;;;;;;12.68;6.05;;;0.50;99.90;;;;;;5068307;28;20043;-87
2023/01/18 08:52:51;;;;;;;11.90;5.75;;;0.60;99.90;;;;;;5070348;28;20075;-87
2023/01/18 08:55:17;;;;;;;13.15;5.53;;;0.60;99.90;;;;;;5083366;28;20052;-87
2023/01/18 08:57:43;;;;;;;14.40;6.00;;;0.60;99.90;;;;;;5105468;28;20047;-88
2023/01/18 09:00:10;;;;;;;12.00;5.72;;;0.60;99.90;;;;;;5060281;28;20436;-88
2023/01/18 09:02:35;;;;;;;13.13;5.80;;;0.70;99.90;;;;;;5076497;28;20050;-88
2023/01/18 09:05:01;;;;;;;12.90;6.22;;;0.80;99.90;;;;;;5072789;28;20055;-87
2023/01/18 09:07:27;;;;;;;13.18;6.15;;;1.60;99.90;;;;;;5090069;28;20032;-87
2023/01/18 09:09:53;;;;;;;12.13;5.50;;;1.20;99.90;;;;;;5089273;28;20400;-87
2023/01/18 09:12:19;;;;;;;12.07;5.95;;;1.70;99.90;;;;;;5090726;28;20043;-87
2023/01/18 09:14:44;;;;;;;16.13;5.88;;;1.00;99.90;;;;;;5072977;28;20076;-88
2023/01/18 09:17:10;;;;;;;11.73;5.32;;;2.50;99.90;;;;;;5058979;28;20043;-88
2023/01/18 09:19:36;;;;;;;13.43;5.20;;;1.10;99.90;;;;;;5056621;28;20503;-88
2023/01/18 09:22:02;;;;;;;12.20;5.47;;;2.70;99.90;;;;;;5072251;28;20040;-87
2023/01/18 09:24:28;;;;;;;13.63;5.78;;;2.70;99.90;;;;;;5075239;28;20114;-88
2023/01/18 09:26:54;;;;;;;11.93;5.45;;;1.20;99.90;;;;;;5073787;28;20491;-88
2023/01/18 09:29:20;;;;;;;13.23;5.80;;;1.20;99.90;;;;;;5057937;28;20304;-88
2023/01/18 09:31:47;;;;;;;11.63;5.53;;;;;;;;;;5110130;28;20032;-89
2023/01/18 09:34:14;;;;;;;13.40;5.80;;;1.30;99.90;;;;;;5073183;28;20117;-87
2023/01/18 09:36:39;;;;;;;12.32;5.63;;;1.30;99.90;;;;;;5079442;28;20075;-87
2023/01/18 09:39:09;;;;;;;11.77;5.72;;;1.30;99.90;;;;;;5073890;28;20132;-88
2023/01/18 09:41:36;;;;;;;12.43;5.50;;;1.10;99.90;;;;;;5085866;28;20054;-87
2023/01/18 09:44:16;;;;;;;12.38;6.38;;;1.40;99.90;;;;;;5085188;28;20047;-87
2023/01/18 09:46:44;;;;;;;14.65;6.15;;;1.40;99.90;;;;;;5093136;28;20555;-88
2023/01/18 09:49:22;;;;;;;12.70;5.65;;;2.50;99.90;;;;;;5061775;28;20028;-88
2023/01/18 09:52:22;;;;;;;13.05;5.82;;;2.00;99.90;;;;;;5080332;28;20380;-86
2023/01/18 09:55:05;;;;;;;13.48;5.85;;;1.50;99.90;;;;;;5092507;28;20484;-87
2023/01/18 09:57:58;;;;;;;11.10;5.57;;;1.60;99.90;;;;;;5084162;28;20043;-89
2023/01/18 10:00:29;;;;;;;11.55;5.68;;;;;;;;;;5071166;28;20579;-88
2023/01/18 10:03:34;;;;;;;13.52;6.20;;;1.60;99.90;;;;;;5103365;28;20093;-87
2023/01/18 10:06:07;;;;;;;12.70;5.53;;;1.70;99.90;;;;;;5055586;28;20062;-87
2023/01/18 10:08:50;;;;;;;13.55;6.03;;;1.70;99.90;;;;;;5090739;28;20481;-88
2023/01/18 10:11:46;;;;;;;12.15;5.78;;;1.70;99.90;;;;;;5089848;28;20752;-87
2023/01/18 10:14:46;;;;;;;14.73;6.32;;;1.80;99.90;;;;;;5089569;28;20035;-87
2023/01/18 10:17:20;;;;;;;12.40;5.70;;;1.80;99.90;;;;;;5044164;28;20512;-90
2023/01/18 10:19:50;;;;;;;12.45;6.07;;;1.80;99.90;;;;;;5090028;28;20118;-88
2023/01/18 10:22:31;;;;;;;11.65;5.85;;;2.00;99.90;;;;;;5109081;28;20044;-88
2023/01/18 10:25:16;;;;;;;12.27;6.03;;;1.90;99.90;;;;;;5092104;28;20059;-88
2023/01/18 10:28:03;;;;;;;11.05;5.60;;;2.00;99.90;;;;;;5089623;28;20045;-87
2023/01/18 10:30:43;;;;;;;12.23;6.00;;;2.00;99.90;;;;;;5082520;28;20024;-87
2023/01/18 10:33:19;;;;;;;11.85;5.75;;;2.00;99.90;;;;;;5091583;28;20115;-88
2023/01/18 10:35:48;;;;;;;14.07;5.80;;;2.10;99.90;;;;;;5092235;28;20124;-88
2023/01/18 10:38:18;;;;;;;13.10;5.63;;;2.10;99.90;;;;;;5097631;27;20220;-88
2023/01/18 10:40:53;;;;;;;12.68;6.18;;;2.20;99.90;;;;;;5094382;28;20040;-87
2023/01/18 10:43:22;;;;;;;12.43;5.68;;;3.10;99.90;;;;;;5088333;28;20210;-87
2023/01/18 10:45:48;;;;;;;10.88;5.65;;;2.30;99.90;;;;;;5085715;28;20031;-88
2023/01/18 10:48:16;;;;;;;11.93;6.00;;;3.90;99.90;;;;;;5054859;28;20048;-87
2023/01/18 10:50:54;;;;;;;12.23;6.18;;;4.10;99.90;;;;;;5103396;28;20205;-87
2023/01/18 10:53:28;;;;;;;11.05;5.68;;;2.40;99.90;;;;;;5108686;28;20043;-88
2023/01/18 10:56:09;;;;;;;10.52;5.10;;;2.40;99.90;;;;;;5106497;28;20052;-87
2023/01/18 10:58:50;;;;;;;12.25;5.90;;;3.60;99.90;;;;;;5098266;28;20626;-87
2023/01/18 11:01:23;;;;;;;11.15;5.50;;;2.60;99.90;;;;;;5087164;28;20057;-87
2023/01/18 11:03:54;;;;;;;10.70;5.72;;;2.60;99.90;;;;;;5091020;28;20574;-87
2023/01/18 11:06:20;;;;;;;14.13;6.28;;;3.90;99.90;;;;;;5078750;28;20039;-87
2023/01/18 11:08:48;;;;;;;12.82;6.05;;;4.20;99.90;;;;;;5071318;28;20245;-86
2023/01/18 11:12:32;;;;;;;12.45;5.85;;;3.50;99.90;;;;;;5082907;28;20605;-87
2023/01/18 11:14:30;;;;;;;12.30;5.53;;;4.10;99.90;;;;;;5106564;28;20044;-87
2023/01/18 11:17:10;;;;;;;13.52;5.80;;;4.00;99.90;;;;;;5066803;28;20055;-86
2023/01/18 11:19:40;;;;;;;11.48;5.20;;;2.80;99.90;;;;;;5095290;28;20039;-86
2023/01/18 11:22:15;;;;;;;11.18;5.60;;;4.00;99.90;;;;;;5089843;28;20088;-86
2023/01/18 11:24:41;;;;;;;11.30;5.10;;;4.20;99.90;;;;;;5091218;28;20032;-88
2023/01/18 11:27:21;;;;;;;11.32;5.57;;;3.70;99.90;;;;;;5090915;28;20039;-86
2023/01/18 11:29:48;;;;;;;12.45;5.55;;;4.60;99.90;;;;;;5089986;28;20028;-86
2023/01/18 11:32:29;;;;;;;12.65;5.35;;;3.10;99.90;;;;;;5073370;28;20062;-87
2023/01/18 11:34:58;;;;;;;11.82;5.07;;;3.20;99.90;;;;;;5108094;28;20036;-87
2023/01/18 11:37:42;;;;;;;11.02;5.10;;;3.20;99.90;;;;;;5090874;28;20303;-88
2023/01/18 11:40:27;;;;;;;12.48;5.07;;;3.30;99.90;;;;;;5100757;28;20058;-87
2023/01/18 11:43:18;;;;;;;14.10;5.47;;;3.40;99.90;;;;;;5078900;28;20039;-86
2023/01/18 11:46:29;;;;;;;10.63;4.90;;;4.40;99.90;;;;;;5092711;28;20059;-87
2023/01/18 11:49:17;;;;;;;9.63;4.57;;;3.40;99.90;;;;;;5032896;28;20252;-87
2023/01/18 11:52:10;;;;;;;10.50;4.53;;;4.30;99.90;;;;;;5110682;28;20039;-86
2023/01/18 11:54:45;;;;;;;12.27;4.97;;;3.50;99.90;;;;;;5072111;28;20051;-87
2023/01/18 11:57:11;;;;;;;9.93;4.65;;;4.80;99.90;;;;;;5083803;28;20042;-87
2023/01/18 11:59:44;;;;;;;10.32;4.90;;;3.50;99.90;;;;;;5094912;28;20040;-87
2023/01/18 12:02:32;;;;;;;9.68;4.80;;;5.00;99.90;;;;;;5110853;28;20055;-87
2023/01/18 12:05:30;;;;;;;11.70;4.90;;;3.60;99.90;;;;;;5094645;28;20078;-86
2023/01/18 12:08:14;;;;;;;11.02;4.93;;;3.70;99.90;;;;;;5085301;28;20044;-87
2023/01/18 12:11:11;;;;;;;10.90;4.68;;;3.80;99.90;;;;;;5095118;28;20087;-86
2023/01/18 12:13:58;;;;;;;11.18;4.75;;;3.80;99.90;;;;;;5087117;28;20392;-86
2023/01/18 12:16:50;;;;;;;12.65;4.72;;;3.90;99.90;;;;;;5094875;28;20040;-86
2023/01/18 12:19:16;;;;;;;9.10;4.22;;;;;;;;;;5077372;28;20046;-88
2023/01/18 12:22:02;;;;;;;11.13;4.35;;;4.00;99.90;;;;;;5087342;28;20047;-88
2023/01/18 12:24:48;;;;;;;10.98;4.43;;;4.00;99.90;;;;;;5089217;28;20040;-86
2023/01/18 12:27:20;;;;;;;9.52;4.00;;;4.00;99.90;;;;;;5108529;28;20048;-86
2023/01/18 12:30:06;;;;;;;8.77;3.87;;;4.90;99.90;;;;;;5102179;28;20039;-87
2023/01/18 12:32:50;;;;;;;10.10;4.30;;;4.10;99.90;;;;;;5094470;28;20438;-87
2023/01/18 12:35:43;;;;;;;9.88;3.97;;;4.10;99.90;;;;;;5107568;28;20082;-88
2023/01/18 12:38:24;;;;;;;10.57;4.15;;;4.20;99.90;;;;;;5088961;28;20047;-88
2023/01/18 12:41:11;;;;;;;10.60;3.65;;;5.20;99.90;;;;;;5094127;28;20056;-87
2023/01/18 12:43:40;;;;;;;9.73;3.75;;;4.30;99.90;;;;;;5093876;28;20567;-87
2023/01/18 12:46:14;;;;;;;12.13;3.85;;;4.30;99.90;;;;;;5087305;28;20051;-88
2023/01/18 12:48:53;;;;;;;12.70;4.47;;;4.40;99.90;;;;;;5087187;28;20054;-87
2023/01/18 12:51:24;;;;;;;11.88;3.70;;;4.40;99.90;;;;;;5110932;28;20070;-87
2023/01/18 12:54:02;;;;;;;9.82;3.72;;;6.30;99.90;;;;;;5110863;28;20481;-87
2023/01/18 12:56:37;;;;;;;10.02;3.65;;;4.50;99.90;;;;;;5091305;28;20099;-87
2023/01/18 12:59:18;;;;;;;8.93;3.63;;;5.20;99.90;;;;;;5092143;28;20036;-87
2023/01/18 13:01:51;;;;;;;8.95;3.50;;;;;;;;;;5093698;28;20055;-87
2023/01/18 13:04:23;;;;;;;11.70;3.55;;;4.60;99.90;;;;;;5104438;28;20043;-88
2023/01/18 13:06:58;;;;;;;9.75;3.55;;;6.10;99.90;;;;;;5094085;28;20112;-87
2023/01/18 13:09:32;;;;;;;11.82;3.72;;;6.10;99.90;;;;;;5087162;28;20067;-87
2023/01/18 13:12:02;;;;;;;9.52;4.00;;;5.60;99.90;;;;;;5110517;28;20036;-88
2023/01/18 13:14:46;;;;;;;9.40;3.60;;;4.60;99.90;;;;;;5091091;28;20046;-86
2023/01/18 13:17:21;;;;;;;13.60;3.83;;;4.70;99.90;;;;;;5093229;28;20560;-88
2023/01/18 13:19:54;;;;;;;9.00;3.40;;;5.20;99.90;;;;;;5096153;28;20039;-87
2023/01/18 13:22:27;;;;;;;9.88;3.60;;;4.90;99.90;;;;;;5079639;28;20127;-88
2023/01/18 13:25:08;;;;;;;;;;;4.40;99.90;;;;;;5081517;28;20028;-88
2023/01/18 13:27:36;;;;;;;11.07;3.80;;;4.30;99.90;;;;;;5102372;28;20379;-87
2023/01/18 13:30:15;;;;;;;10.38;3.80;;;4.20;99.90;;;;;;5081744;28;20036;-87
2023/01/18 13:32:44;;;;;;;9.52;3.88;;;4.10;99.90;;;;;;5072965;28;20078;-87
2023/01/18 13:35:14;;;;;;;10.20;4.18;;;4.10;99.90;;;;;;5090789;28;20039;-86
2023/01/18 13:37:48;;;;;;;10.98;4.18;;;4.50;99.90;;;;;;5107541;27;20039;-88
2023/01/18 13:40:25;;;;;;;9.57;4.00;;;4.00;99.90;;;;;;5092568;28;20035;-87
2023/01/18 13:42:50;;;;;;;12.07;4.40;;;5.40;99.90;;;;;;5109889;28;20452;-88
2023/01/18 13:45:23;;;;;;;10.27;3.85;;;4.60;99.90;;;;;;5092966;28;20039;-88
2023/01/18 13:47:59;;;;;;;10.02;4.10;;;4.00;99.90;;;;;;5099021;28;20330;-88
2023/01/18 13:50:30;;;;;;;10.02;3.78;;;;;;;;;;5081356;28;20470;-88
2023/01/18 13:53:14;;;;;;;9.07;3.78;;;4.00;99.90;;;;;;5092621;28;20071;-88
2023/01/18 13:55:45;;;;;;;10.48;4.05;;;4.00;99.90;;;;;;5097848;28;20504;-87
2023/01/18 13:58:34;;;;;;;9.93;3.70;;;5.40;99.90;;;;;;5090705;28;20413;-87
2023/01/18 14:01:03;;;;;;;11.98;3.90;;;3.90;99.90;;;;;;5089345;28;20419;-87
2023/01/18 14:03:33;;;;;;;10.63;4.10;;;3.90;99.90;;;;;;5091997;28;20047;-89
2023/01/18 14:06:09;;;;;;;12.52;4.32;;;5.20;99.90;;;;;;5109806;28;20173;-87
2023/01/18 14:08:38;;;;;;;9.05;3.85;;;3.90;99.90;;;;;;5104349;28;20081;-87
2023/01/18 14:11:24;;;;;;;9.70;3.90;;;3.90;99.90;;;;;;5107528;28;20035;-87
2023/01/18 14:13:50;;;;;;;9.68;3.90;;;5.40;99.90;;;;;;5092170;28;20043;-90
2023/01/18 14:16:19;;;;;;;9.43;4.00;;;3.90;99.90;;;;;;5092277;28;20054;-88
2023/01/18 14:19:15;;;;;;;11.35;4.10;;;5.10;99.90;;;;;;5088815;28;20063;-87